sensor_id;sensor_type;location;lat;lon;timestamp;pressure;altitude;pressure_sealevel;temperature;humidity
39267;BME280;24967;51.154;13.812;2023-08-12T00:01:58;99903.84;;;18.34;73.20
39267;BME280;24967;51.154;13.812;2023-08-12T00:04:25;99904.22;;;18.31;73.55
39267;BME280;24967;51.154;13.812;2023-08-12T00:06:51;99909.34;;;18.26;74.05
39267;BME280;24967;51.154;13.812;2023-08-12T00:09:19;99905.38;;;18.22;74.24
39267;BME280;24967;51.154;13.812;2023-08-12T00:11:45;99906.66;;;18.26;74.20
39267;BME280;24967;51.154;13.812;2023-08-12T00:14:12;99906.44;;;18.27;74.24
39267;BME280;24967;51.154;13.812;2023-08-12T00:16:38;99902.09;;;18.26;74.65
39267;BME280;24967;51.154;13.812;2023-08-12T00:19:04;99897.16;;;18.30;74.61
39267;BME280;24967;51.154;13.812;2023-08-12T00:21:31;99894.28;;;18.31;74.73
39267;BME280;24967;51.154;13.812;2023-08-12T00:23:57;99903.84;;;18.34;74.70
39267;BME280;24967;51.154;13.812;2023-08-12T00:26:25;99900.94;;;18.36;74.50
39267;BME280;24967;51.154;13.812;2023-08-12T00:28:52;99902.31;;;18.46;73.75
39267;BME280;24967;51.154;13.812;2023-08-12T00:31:18;99896.16;;;18.52;73.38
39267;BME280;24967;51.154;13.812;2023-08-12T00:33:45;99902.09;;;18.48;73.20
39267;BME280;24967;51.154;13.812;2023-08-12T00:36:11;99892.75;;;18.44;73.27
39267;BME280;24967;51.154;13.812;2023-08-12T00:38:49;99891.97;;;18.50;72.89
39267;BME280;24967;51.154;13.812;2023-08-12T00:41:16;99884.03;;;18.42;73.31
39267;BME280;24967;51.154;13.812;2023-08-12T00:43:43;99893.41;;;18.46;73.17
39267;BME280;24967;51.154;13.812;2023-08-12T00:46:10;99877.03;;;18.47;72.97
39267;BME280;24967;51.154;13.812;2023-08-12T00:48:36;99876.41;;;18.45;72.72
39267;BME280;24967;51.154;13.812;2023-08-12T00:51:02;99878.09;;;18.46;72.79
39267;BME280;24967;51.154;13.812;2023-08-12T00:53:29;99877.44;;;18.44;72.81
39267;BME280;24967;51.154;13.812;2023-08-12T00:58:45;99886.41;;;18.30;73.39
39267;BME280;24967;51.154;13.812;2023-08-12T01:01:11;99877.72;;;18.28;73.34
39267;BME280;24967;51.154;13.812;2023-08-12T01:03:38;99881.41;;;18.27;73.51
39267;BME280;24967;51.154;13.812;2023-08-12T01:06:04;99882.06;;;18.29;73.31
39267;BME280;24967;51.154;13.812;2023-08-12T01:08:32;99881.22;;;18.28;73.48
39267;BME280;24967;51.154;13.812;2023-08-12T01:11:02;99876.47;;;18.30;73.18
39267;BME280;24967;51.154;13.812;2023-08-12T01:13:29;99878.72;;;18.27;73.27
39267;BME280;24967;51.154;13.812;2023-08-12T01:18:51;99874.94;;;18.21;73.19
39267;BME280;24967;51.154;13.812;2023-08-12T01:21:17;99874.31;;;18.19;73.12
39267;BME280;24967;51.154;13.812;2023-08-12T01:23:48;99876.72;;;18.14;73.07
39267;BME280;24967;51.154;13.812;2023-08-12T01:26:14;99868.88;;;18.13;73.44
39267;BME280;24967;51.154;13.812;2023-08-12T01:28:41;99873.59;;;18.11;73.43
39267;BME280;24967;51.154;13.812;2023-08-12T01:31:08;99875.63;;;18.08;73.51
39267;BME280;24967;51.154;13.812;2023-08-12T01:33:39;99867.56;;;18.08;73.51
39267;BME280;24967;51.154;13.812;2023-08-12T01:36:09;99871.06;;;18.09;73.59
39267;BME280;24967;51.154;13.812;2023-08-12T01:38:36;99863.22;;;18.07;73.73
39267;BME280;24967;51.154;13.812;2023-08-12T01:41:06;99863.88;;;18.10;73.82
39267;BME280;24967;51.154;13.812;2023-08-12T01:43:32;99870.91;;;18.11;74.00
39267;BME280;24967;51.154;13.812;2023-08-12T01:45:59;99864.50;;;18.12;74.05
39267;BME280;24967;51.154;13.812;2023-08-12T01:48:25;99861.63;;;18.13;74.22
39267;BME280;24967;51.154;13.812;2023-08-12T01:50:52;99855.47;;;18.19;74.03
39267;BME280;24967;51.154;13.812;2023-08-12T01:53:18;99855.25;;;18.21;74.51
39267;BME280;24967;51.154;13.812;2023-08-12T01:55:44;99852.00;;;18.25;74.62
39267;BME280;24967;51.154;13.812;2023-08-12T01:58:12;99849.09;;;18.27;74.79
39267;BME280;24967;51.154;13.812;2023-08-12T02:00:38;99842.13;;;18.33;74.66
39267;BME280;24967;51.154;13.812;2023-08-12T02:03:05;99844.25;;;18.37;74.31
39267;BME280;24967;51.154;13.812;2023-08-12T02:05:31;99849.88;;;18.42;74.15
39267;BME280;24967;51.154;13.812;2023-08-12T02:07:58;99836.50;;;18.49;73.85
39267;BME280;24967;51.154;13.812;2023-08-12T02:10:24;99839.41;;;18.54;73.59
39267;BME280;24967;51.154;13.812;2023-08-12T02:12:54;99839.44;;;18.61;73.34
39267;BME280;24967;51.154;13.812;2023-08-12T02:15:21;99830.41;;;18.68;72.93
39267;BME280;24967;51.154;13.812;2023-08-12T02:17:48;99830.84;;;18.72;72.35
39267;BME280;24967;51.154;13.812;2023-08-12T02:20:14;99825.31;;;18.73;72.06
39267;BME280;24967;51.154;13.812;2023-08-12T02:22:40;99824.69;;;18.78;71.81
39267;BME280;24967;51.154;13.812;2023-08-12T02:25:07;99823.09;;;18.84;71.41
39267;BME280;24967;51.154;13.812;2023-08-12T02:27:33;99822.69;;;18.87;71.18
39267;BME280;24967;51.154;13.812;2023-08-12T02:30:00;99816.34;;;18.94;70.75
39267;BME280;24967;51.154;13.812;2023-08-12T02:32:28;99807.59;;;18.92;70.82
39267;BME280;24967;51.154;13.812;2023-08-12T02:34:54;99802.22;;;18.92;70.53
39267;BME280;24967;51.154;13.812;2023-08-12T02:37:36;99797.66;;;18.93;70.58
39267;BME280;24967;51.154;13.812;2023-08-12T02:40:02;99796.44;;;18.95;70.61
39267;BME280;24967;51.154;13.812;2023-08-12T02:42:29;99798.91;;;18.97;70.26
39267;BME280;24967;51.154;13.812;2023-08-12T02:44:56;99798.09;;;18.96;69.86
39267;BME280;24967;51.154;13.812;2023-08-12T02:47:22;99799.78;;;18.97;69.71
39267;BME280;24967;51.154;13.812;2023-08-12T02:49:50;99797.25;;;18.96;69.68
39267;BME280;24967;51.154;13.812;2023-08-12T02:52:16;99795.78;;;18.93;69.71
39267;BME280;24967;51.154;13.812;2023-08-12T02:54:56;99801.41;;;18.92;69.58
39267;BME280;24967;51.154;13.812;2023-08-12T02:57:23;99798.69;;;18.92;69.63
39267;BME280;24967;51.154;13.812;2023-08-12T02:59:49;99791.63;;;18.91;69.51
39267;BME280;24967;51.154;13.812;2023-08-12T03:02:15;99799.72;;;18.91;69.45
39267;BME280;24967;51.154;13.812;2023-08-12T03:04:42;99797.41;;;18.88;69.60
39267;BME280;24967;51.154;13.812;2023-08-12T03:07:10;99793.91;;;18.87;69.55
39267;BME280;24967;51.154;13.812;2023-08-12T03:09:36;99793.94;;;18.94;69.26
39267;BME280;24967;51.154;13.812;2023-08-12T03:12:02;99800.34;;;18.93;69.15
39267;BME280;24967;51.154;13.812;2023-08-12T03:14:29;99794.31;;;18.91;68.95
39267;BME280;24967;51.154;13.812;2023-08-12T03:16:55;99798.47;;;18.93;68.99
39267;BME280;24967;51.154;13.812;2023-08-12T03:19:22;99804.91;;;18.92;69.07
39267;BME280;24967;51.154;13.812;2023-08-12T03:21:48;99800.97;;;18.88;69.10
39267;BME280;24967;51.154;13.812;2023-08-12T03:24:16;99804.88;;;18.86;69.18
39267;BME280;24967;51.154;13.812;2023-08-12T03:26:42;99799.06;;;18.82;69.31
39267;BME280;24967;51.154;13.812;2023-08-12T03:29:08;99795.09;;;18.78;69.37
39267;BME280;24967;51.154;13.812;2023-08-12T03:31:35;99797.34;;;18.74;69.68
39267;BME280;24967;51.154;13.812;2023-08-12T03:34:01;99802.25;;;18.71;69.80
39267;BME280;24967;51.154;13.812;2023-08-12T03:36:29;99796.63;;;18.66;69.85
39267;BME280;24967;51.154;13.812;2023-08-12T03:38:55;99795.16;;;18.63;70.05
39267;BME280;24967;51.154;13.812;2023-08-12T03:41:23;99792.84;;;18.60;70.22
39267;BME280;24967;51.154;13.812;2023-08-12T03:43:50;99791.38;;;18.58;70.25
39267;BME280;24967;51.154;13.812;2023-08-12T03:46:16;99789.94;;;18.55;70.56
39267;BME280;24967;51.154;13.812;2023-08-12T03:48:43;99793.03;;;18.52;70.45
39267;BME280;24967;51.154;13.812;2023-08-12T03:51:09;99783.91;;;18.53;70.67
39267;BME280;24967;51.154;13.812;2023-08-12T03:53:35;99778.28;;;18.48;71.01
39267;BME280;24967;51.154;13.812;2023-08-12T03:56:02;99778.31;;;18.54;70.99
39267;BME280;24967;51.154;13.812;2023-08-12T03:58:30;99775.88;;;18.60;70.82
39267;BME280;24967;51.154;13.812;2023-08-12T04:00:56;99783.38;;;18.64;70.86
39267;BME280;24967;51.154;13.812;2023-08-12T04:03:23;99785.84;;;18.66;70.71
39267;BME280;24967;51.154;13.812;2023-08-12T04:05:49;99781.13;;;18.68;70.77
39267;BME280;24967;51.154;13.812;2023-08-12T04:08:17;99780.34;;;18.74;70.64
39267;BME280;24967;51.154;13.812;2023-08-12T04:10:44;99771.88;;;18.77;70.49
39267;BME280;24967;51.154;13.812;2023-08-12T04:13:10;99776.22;;;18.78;70.70
39267;BME280;24967;51.154;13.812;2023-08-12T04:15:38;99772.97;;;18.83;70.64
39267;BME280;24967;51.154;13.812;2023-08-12T04:18:05;99783.56;;;18.91;70.49
39267;BME280;24967;51.154;13.812;2023-08-12T04:20:31;99775.53;;;18.97;70.25
39267;BME280;24967;51.154;13.812;2023-08-12T04:22:57;99779.31;;;19.10;69.98
39267;BME280;24967;51.154;13.812;2023-08-12T04:25:24;99766.91;;;19.15;69.63
39267;BME280;24967;51.154;13.812;2023-08-12T04:27:50;99773.78;;;19.25;69.75
39267;BME280;24967;51.154;13.812;2023-08-12T04:30:18;99766.53;;;19.32;69.62
39267;BME280;24967;51.154;13.812;2023-08-12T04:32:46;99778.81;;;19.41;69.46
39267;BME280;24967;51.154;13.812;2023-08-12T04:35:13;99774.72;;;19.52;69.30
39267;BME280;24967;51.154;13.812;2023-08-12T04:37:39;99773.94;;;19.64;68.92
39267;BME280;24967;51.154;13.812;2023-08-12T04:40:06;99774.59;;;19.73;68.64
39267;BME280;24967;51.154;13.812;2023-08-12T04:42:33;99774.19;;;19.83;68.35
39267;BME280;24967;51.154;13.812;2023-08-12T04:45:00;99773.38;;;19.96;67.75
39267;BME280;24967;51.154;13.812;2023-08-12T04:47:26;99771.94;;;20.06;67.46
39267;BME280;24967;51.154;13.812;2023-08-12T04:49:54;99773.81;;;20.19;67.29
39267;BME280;24967;51.154;13.812;2023-08-12T04:52:20;99774.22;;;20.29;67.04
39267;BME280;24967;51.154;13.812;2023-08-12T04:54:47;99767.13;;;20.42;66.88
39267;BME280;24967;51.154;13.812;2023-08-12T04:57:14;99764.91;;;20.52;66.33
39267;BME280;24967;51.154;13.812;2023-08-12T04:59:41;99765.28;;;20.62;65.94
39267;BME280;24967;51.154;13.812;2023-08-12T05:02:07;99762.56;;;20.69;65.64
39267;BME280;24967;51.154;13.812;2023-08-12T05:04:33;99759.41;;;20.78;64.81
39267;BME280;24967;51.154;13.812;2023-08-12T05:07:01;99760.03;;;20.87;64.74
39267;BME280;24967;51.154;13.812;2023-08-12T05:09:27;99761.69;;;20.95;64.84
39267;BME280;24967;51.154;13.812;2023-08-12T05:11:53;99763.53;;;21.01;64.64
39267;BME280;24967;51.154;13.812;2023-08-12T05:14:20;99759.53;;;21.10;64.80
39267;BME280;24967;51.154;13.812;2023-08-12T05:16:46;99758.69;;;21.16;64.47
39267;BME280;24967;51.154;13.812;2023-08-12T05:19:12;99761.34;;;21.23;64.35
39267;BME280;24967;51.154;13.812;2023-08-12T05:21:39;99761.31;;;21.30;64.29
39267;BME280;24967;51.154;13.812;2023-08-12T05:24:07;99757.78;;;21.36;63.61
39267;BME280;24967;51.154;13.812;2023-08-12T05:26:33;99762.75;;;21.45;63.87
39267;BME280;24967;51.154;13.812;2023-08-12T05:29:00;99766.63;;;21.56;63.86
39267;BME280;24967;51.154;13.812;2023-08-12T05:31:26;99758.84;;;21.66;63.19
39267;BME280;24967;51.154;13.812;2023-08-12T05:33:52;99758.13;;;21.84;62.35
39267;BME280;24967;51.154;13.812;2023-08-12T05:36:19;99758.25;;;21.96;62.30
39267;BME280;24967;51.154;13.812;2023-08-12T05:38:45;99756.09;;;22.05;62.02
39267;BME280;24967;51.154;13.812;2023-08-12T05:41:13;99748.75;;;22.18;61.71
39267;BME280;24967;51.154;13.812;2023-08-12T05:43:39;99746.22;;;22.42;60.94
39267;BME280;24967;51.154;13.812;2023-08-12T05:46:05;99743.38;;;22.99;60.71
39267;BME280;24967;51.154;13.812;2023-08-12T05:48:32;99746.78;;;24.15;58.97
39267;BME280;24967;51.154;13.812;2023-08-12T05:50:59;99747.56;;;25.50;54.85
39267;BME280;24967;51.154;13.812;2023-08-12T05:53:25;99750.78;;;26.77;50.56
39267;BME280;24967;51.154;13.812;2023-08-12T05:55:52;99743.41;;;27.92;47.65
39267;BME280;24967;51.154;13.812;2023-08-12T05:58:19;99741.97;;;29.02;44.13
39267;BME280;24967;51.154;13.812;2023-08-12T06:00:46;99740.31;;;29.79;42.53
39267;BME280;24967;51.154;13.812;2023-08-12T06:03:12;99747.94;;;30.64;40.40
39267;BME280;24967;51.154;13.812;2023-08-12T06:05:39;99737.72;;;30.95;38.86
39267;BME280;24967;51.154;13.812;2023-08-12T06:08:06;99743.84;;;30.56;39.61
39267;BME280;24967;51.154;13.812;2023-08-12T06:10:32;99742.78;;;30.16;40.28
39267;BME280;24967;51.154;13.812;2023-08-12T06:12:59;99743.34;;;30.08;41.41
39267;BME280;24967;51.154;13.812;2023-08-12T06:15:26;99730.47;;;30.39;41.38
39267;BME280;24967;51.154;13.812;2023-08-12T06:17:53;99730.47;;;31.19;40.15
39267;BME280;24967;51.154;13.812;2023-08-12T06:20:19;99719.28;;;32.00;37.74
39267;BME280;24967;51.154;13.812;2023-08-12T06:22:45;99719.06;;;32.54;37.14
39267;BME280;24967;51.154;13.812;2023-08-12T06:25:13;99721.84;;;33.21;36.48
39267;BME280;24967;51.154;13.812;2023-08-12T06:27:41;99721.13;;;33.72;35.20
39267;BME280;24967;51.154;13.812;2023-08-12T06:30:08;99719.78;;;34.22;33.98
39267;BME280;24967;51.154;13.812;2023-08-12T06:32:36;99719.34;;;34.47;32.86
39267;BME280;24967;51.154;13.812;2023-08-12T06:35:06;99719.47;;;34.56;33.07
39267;BME280;24967;51.154;13.812;2023-08-12T06:37:32;99715.44;;;34.48;32.71
39267;BME280;24967;51.154;13.812;2023-08-12T06:39:58;99710.25;;;35.02;32.84
39267;BME280;24967;51.154;13.812;2023-08-12T06:42:25;99717.84;;;35.60;31.95
39267;BME280;24967;51.154;13.812;2023-08-12T06:44:53;99712.56;;;36.17;31.26
39267;BME280;24967;51.154;13.812;2023-08-12T06:47:19;99714.19;;;36.50;30.75
39267;BME280;24967;51.154;13.812;2023-08-12T06:49:47;99714.19;;;36.89;29.94
39267;BME280;24967;51.154;13.812;2023-08-12T06:52:13;99707.34;;;36.87;28.74
39267;BME280;24967;51.154;13.812;2023-08-12T06:54:41;99710.47;;;36.23;29.89
39267;BME280;24967;51.154;13.812;2023-08-12T06:57:07;99711.38;;;35.28;31.01
39267;BME280;24967;51.154;13.812;2023-08-12T06:59:33;99714.72;;;34.42;32.23
39267;BME280;24967;51.154;13.812;2023-08-12T07:02:00;99704.03;;;33.57;33.54
39267;BME280;24967;51.154;13.812;2023-08-12T07:04:26;99708.25;;;33.30;35.32
39267;BME280;24967;51.154;13.812;2023-08-12T07:06:54;99710.00;;;33.96;34.29
39267;BME280;24967;51.154;13.812;2023-08-12T07:09:21;99708.34;;;34.28;34.89
39267;BME280;24967;51.154;13.812;2023-08-12T07:11:47;99710.88;;;34.85;33.10
39267;BME280;24967;51.154;13.812;2023-08-12T07:14:13;99698.50;;;34.96;33.10
39267;BME280;24967;51.154;13.812;2023-08-12T07:16:43;99707.53;;;34.74;32.47
39267;BME280;24967;51.154;13.812;2023-08-12T07:19:09;99703.41;;;34.99;33.83
39267;BME280;24967;51.154;13.812;2023-08-12T07:21:35;99701.78;;;34.84;32.71
39267;BME280;24967;51.154;13.812;2023-08-12T07:24:03;99708.88;;;34.30;33.64
39267;BME280;24967;51.154;13.812;2023-08-12T07:26:30;99702.84;;;33.63;34.31
39267;BME280;24967;51.154;13.812;2023-08-12T07:28:56;99704.53;;;32.97;35.11
39267;BME280;24967;51.154;13.812;2023-08-12T07:31:23;99704.72;;;32.28;36.05
39267;BME280;24967;51.154;13.812;2023-08-12T07:33:49;99709.56;;;31.73;37.42
39267;BME280;24967;51.154;13.812;2023-08-12T07:36:15;99711.19;;;31.40;38.32
39267;BME280;24967;51.154;13.812;2023-08-12T07:38:42;99713.47;;;31.17;38.99
39267;BME280;24967;51.154;13.812;2023-08-12T07:41:09;99701.72;;;31.07;39.48
39267;BME280;24967;51.154;13.812;2023-08-12T07:43:36;99703.25;;;31.28;39.63
39267;BME280;24967;51.154;13.812;2023-08-12T07:46:02;99701.44;;;32.55;38.67
39267;BME280;24967;51.154;13.812;2023-08-12T07:48:29;99704.97;;;34.17;35.87
39267;BME280;24967;51.154;13.812;2023-08-12T07:50:56;99694.28;;;35.26;33.46
39267;BME280;24967;51.154;13.812;2023-08-12T07:53:22;99698.66;;;36.31;32.39
39267;BME280;24967;51.154;13.812;2023-08-12T07:55:49;99696.06;;;37.41;31.02
39267;BME280;24967;51.154;13.812;2023-08-12T07:58:16;99706.84;;;38.50;30.42
39267;BME280;24967;51.154;13.812;2023-08-12T08:00:43;99691.38;;;39.50;28.53
39267;BME280;24967;51.154;13.812;2023-08-12T08:03:09;99693.47;;;40.07;27.57
39267;BME280;24967;51.154;13.812;2023-08-12T08:05:36;99693.13;;;40.79;27.65
39267;BME280;24967;51.154;13.812;2023-08-12T08:08:05;99683.88;;;41.28;26.31
39267;BME280;24967;51.154;13.812;2023-08-12T08:10:32;99680.31;;;41.55;25.96
39267;BME280;24967;51.154;13.812;2023-08-12T08:12:58;99680.41;;;41.31;25.45
39267;BME280;24967;51.154;13.812;2023-08-12T08:15:26;99675.34;;;40.84;26.20
39267;BME280;24967;51.154;13.812;2023-08-12T08:17:52;99672.59;;;40.01;26.99
39267;BME280;24967;51.154;13.812;2023-08-12T08:20:18;99668.56;;;39.57;26.89
39267;BME280;24967;51.154;13.812;2023-08-12T08:22:45;99668.28;;;39.71;27.52
39267;BME280;24967;51.154;13.812;2023-08-12T08:25:12;99657.44;;;40.23;26.94
39267;BME280;24967;51.154;13.812;2023-08-12T08:27:39;99659.78;;;40.83;26.89
39267;BME280;24967;51.154;13.812;2023-08-12T08:30:06;99661.91;;;41.26;25.73
39267;BME280;24967;51.154;13.812;2023-08-12T08:32:35;99668.75;;;41.69;25.69
39267;BME280;24967;51.154;13.812;2023-08-12T08:35:02;99669.00;;;42.08;24.79
39267;BME280;24967;51.154;13.812;2023-08-12T08:37:29;99659.75;;;42.67;24.69
39267;BME280;24967;51.154;13.812;2023-08-12T08:39:55;99665.50;;;43.10;24.68
39267;BME280;24967;51.154;13.812;2023-08-12T08:42:25;99668.50;;;43.56;24.13
39267;BME280;24967;51.154;13.812;2023-08-12T08:44:51;99665.47;;;43.45;23.11
39267;BME280;24967;51.154;13.812;2023-08-12T08:47:21;99667.59;;;43.71;23.45
39267;BME280;24967;51.154;13.812;2023-08-12T08:49:59;99661.88;;;44.29;23.10
39267;BME280;24967;51.154;13.812;2023-08-12T08:52:26;99662.50;;;44.42;22.38
39267;BME280;24967;51.154;13.812;2023-08-12T08:54:53;99656.44;;;44.37;22.59
39267;BME280;24967;51.154;13.812;2023-08-12T08:57:20;99659.22;;;44.37;22.14
39267;BME280;24967;51.154;13.812;2023-08-12T08:59:49;99660.22;;;43.82;21.60
39267;BME280;24967;51.154;13.812;2023-08-12T09:02:24;99657.34;;;44.21;22.66
39267;BME280;24967;51.154;13.812;2023-08-12T09:04:51;99648.44;;;44.16;22.63
39267;BME280;24967;51.154;13.812;2023-08-12T09:07:29;99650.50;;;43.96;21.94
39267;BME280;24967;51.154;13.812;2023-08-12T09:09:56;99653.72;;;43.55;23.13
39267;BME280;24967;51.154;13.812;2023-08-12T09:12:27;99649.06;;;43.63;23.07
39267;BME280;24967;51.154;13.812;2023-08-12T09:14:55;99647.81;;;43.41;23.08
39267;BME280;24967;51.154;13.812;2023-08-12T09:17:22;99653.09;;;43.27;23.71
39267;BME280;24967;51.154;13.812;2023-08-12T09:19:52;99652.63;;;42.70;24.66
39267;BME280;24967;51.154;13.812;2023-08-12T09:22:19;99650.28;;;42.24;25.29
39267;BME280;24967;51.154;13.812;2023-08-12T09:24:47;99645.75;;;41.60;25.41
39267;BME280;24967;51.154;13.812;2023-08-12T09:27:17;99639.84;;;41.21;25.94
39267;BME280;24967;51.154;13.812;2023-08-12T09:29:47;99639.63;;;40.61;26.87
39267;BME280;24967;51.154;13.812;2023-08-12T09:32:22;99641.81;;;39.52;27.12
39267;BME280;24967;51.154;13.812;2023-08-12T09:34:53;99643.44;;;39.32;26.07
39267;BME280;24967;51.154;13.812;2023-08-12T09:37:22;99633.94;;;38.91;26.92
39267;BME280;24967;51.154;13.812;2023-08-12T09:39:51;99631.50;;;38.90;28.04
39267;BME280;24967;51.154;13.812;2023-08-12T09:42:18;99636.59;;;38.58;27.83
39267;BME280;24967;51.154;13.812;2023-08-12T09:44:45;99636.00;;;38.35;28.17
39267;BME280;24967;51.154;13.812;2023-08-12T09:47:12;99634.81;;;38.07;28.16
39267;BME280;24967;51.154;13.812;2023-08-12T09:49:43;99638.81;;;37.71;28.14
39267;BME280;24967;51.154;13.812;2023-08-12T09:52:10;99627.41;;;37.29;28.80
39267;BME280;24967;51.154;13.812;2023-08-12T09:54:36;99627.22;;;36.99;29.63
39267;BME280;24967;51.154;13.812;2023-08-12T09:57:06;99626.63;;;36.54;30.38
39267;BME280;24967;51.154;13.812;2023-08-12T09:59:34;99629.50;;;36.49;31.02
39267;BME280;24967;51.154;13.812;2023-08-12T10:02:01;99625.34;;;36.20;31.15
39267;BME280;24967;51.154;13.812;2023-08-12T10:04:33;99623.38;;;35.89;30.82
39267;BME280;24967;51.154;13.812;2023-08-12T10:07:01;99630.19;;;35.83;32.81
39267;BME280;24967;51.154;13.812;2023-08-12T10:09:32;99621.94;;;35.69;31.72
39267;BME280;24967;51.154;13.812;2023-08-12T10:12:01;99626.00;;;35.27;32.82
39267;BME280;24967;51.154;13.812;2023-08-12T10:14:33;99619.53;;;35.09;32.49
39267;BME280;24967;51.154;13.812;2023-08-12T10:17:02;99613.53;;;34.79;33.04
39267;BME280;24967;51.154;13.812;2023-08-12T10:19:34;99618.97;;;34.57;34.21
39267;BME280;24967;51.154;13.812;2023-08-12T10:22:04;99611.69;;;34.33;32.81
39267;BME280;24967;51.154;13.812;2023-08-12T10:24:31;99613.84;;;34.09;32.05
39267;BME280;24967;51.154;13.812;2023-08-12T10:27:00;99609.72;;;33.92;33.06
39267;BME280;24967;51.154;13.812;2023-08-12T10:29:30;99610.19;;;33.81;33.48
39267;BME280;24967;51.154;13.812;2023-08-12T10:31:57;99604.94;;;33.65;32.48
39267;BME280;24967;51.154;13.812;2023-08-12T10:34:24;99600.56;;;33.45;32.89
39267;BME280;24967;51.154;13.812;2023-08-12T10:36:54;99605.13;;;33.36;33.56
39267;BME280;24967;51.154;13.812;2023-08-12T10:39:24;99609.25;;;33.20;33.95
39267;BME280;24967;51.154;13.812;2023-08-12T10:41:54;99613.63;;;33.02;34.23
39267;BME280;24967;51.154;13.812;2023-08-12T10:44:21;99606.72;;;33.04;34.27
39267;BME280;24967;51.154;13.812;2023-08-12T10:46:53;99601.09;;;32.91;34.04
39267;BME280;24967;51.154;13.812;2023-08-12T10:49:20;99592.84;;;32.72;34.74
39267;BME280;24967;51.154;13.812;2023-08-12T10:51:49;99591.25;;;32.66;34.26
39267;BME280;24967;51.154;13.812;2023-08-12T10:54:16;99595.25;;;32.54;34.71
39267;BME280;24967;51.154;13.812;2023-08-12T11:02:20;99580.38;;;32.07;35.10
39267;BME280;24967;51.154;13.812;2023-08-12T11:04:51;99583.84;;;31.89;35.37
39267;BME280;24967;51.154;13.812;2023-08-12T11:10:16;99578.13;;;31.56;36.52
39267;BME280;24967;51.154;13.812;2023-08-12T11:12:47;99585.28;;;31.52;36.42
39267;BME280;24967;51.154;13.812;2023-08-12T11:15:14;99587.56;;;31.45;36.17
39267;BME280;24967;51.154;13.812;2023-08-12T11:17:46;99583.25;;;31.29;36.83
39267;BME280;24967;51.154;13.812;2023-08-12T11:20:13;99577.50;;;31.25;36.95
39267;BME280;24967;51.154;13.812;2023-08-12T11:22:43;99582.59;;;31.08;37.14
39267;BME280;24967;51.154;13.812;2023-08-12T11:25:14;99579.88;;;31.02;37.56
39267;BME280;24967;51.154;13.812;2023-08-12T11:27:45;99574.97;;;30.99;37.97
39267;BME280;24967;51.154;13.812;2023-08-12T11:30:15;99575.78;;;31.00;38.00
39267;BME280;24967;51.154;13.812;2023-08-12T11:32:46;99563.97;;;30.99;38.44
39267;BME280;24967;51.154;13.812;2023-08-12T11:35:18;99571.84;;;31.11;38.38
39267;BME280;24967;51.154;13.812;2023-08-12T11:37:45;99568.78;;;31.18;38.56
39267;BME280;24967;51.154;13.812;2023-08-12T11:43:15;99563.44;;;31.37;38.23
39267;BME280;24967;51.154;13.812;2023-08-12T11:45:42;99567.31;;;31.31;38.67
39267;BME280;24967;51.154;13.812;2023-08-12T11:48:17;99557.22;;;31.21;38.88
39267;BME280;24967;51.154;13.812;2023-08-12T11:50:52;99559.06;;;31.36;38.44
39267;BME280;24967;51.154;13.812;2023-08-12T11:53:24;99566.50;;;31.35;38.46
39267;BME280;24967;51.154;13.812;2023-08-12T11:55:52;99559.66;;;31.27;38.00
39267;BME280;24967;51.154;13.812;2023-08-12T11:58:21;99550.06;;;31.25;38.77
39267;BME280;24967;51.154;13.812;2023-08-12T12:00:51;99552.56;;;31.21;38.55
39267;BME280;24967;51.154;13.812;2023-08-12T12:03:39;99555.84;;;31.23;38.73
39267;BME280;24967;51.154;13.812;2023-08-12T12:06:08;99549.03;;;31.16;38.87
39267;BME280;24967;51.154;13.812;2023-08-12T12:08:38;99557.25;;;31.16;38.84
39267;BME280;24967;51.154;13.812;2023-08-12T12:11:13;99554.47;;;31.21;39.44
39267;BME280;24967;51.154;13.812;2023-08-12T12:13:50;99555.16;;;31.08;38.39
39267;BME280;24967;51.154;13.812;2023-08-12T12:16:19;99554.19;;;31.22;38.97
39267;BME280;24967;51.154;13.812;2023-08-12T12:18:56;99557.38;;;31.40;39.92
39267;BME280;24967;51.154;13.812;2023-08-12T12:21:25;99554.06;;;31.43;39.80
39267;BME280;24967;51.154;13.812;2023-08-12T12:23:52;99553.97;;;31.53;38.41
39267;BME280;24967;51.154;13.812;2023-08-12T12:26:21;99555.31;;;31.85;39.04
39267;BME280;24967;51.154;13.812;2023-08-12T12:28:48;99552.47;;;31.95;36.88
39267;BME280;24967;51.154;13.812;2023-08-12T12:31:15;99553.75;;;32.27;37.84
39267;BME280;24967;51.154;13.812;2023-08-12T12:33:41;99546.59;;;32.50;37.01
39267;BME280;24967;51.154;13.812;2023-08-12T12:36:16;99544.84;;;32.59;37.23
39267;BME280;24967;51.154;13.812;2023-08-12T12:38:46;99538.81;;;32.76;36.42
39267;BME280;24967;51.154;13.812;2023-08-12T12:41:12;99546.75;;;32.58;36.36
39267;BME280;24967;51.154;13.812;2023-08-12T12:43:45;99546.94;;;32.43;36.20
39267;BME280;24967;51.154;13.812;2023-08-12T12:46:14;99538.88;;;32.28;37.15
39267;BME280;24967;51.154;13.812;2023-08-12T12:48:45;99535.91;;;32.24;36.91
39267;BME280;24967;51.154;13.812;2023-08-12T12:51:16;99534.06;;;32.20;36.86
39267;BME280;24967;51.154;13.812;2023-08-12T12:53:47;99532.63;;;32.22;38.00
39267;BME280;24967;51.154;13.812;2023-08-12T12:56:25;99527.59;;;32.29;36.89
39267;BME280;24967;51.154;13.812;2023-08-12T12:58:53;99526.72;;;32.34;36.78
39267;BME280;24967;51.154;13.812;2023-08-12T13:01:21;99529.63;;;32.43;37.10
39267;BME280;24967;51.154;13.812;2023-08-12T13:04:01;99529.66;;;32.61;37.62
39267;BME280;24967;51.154;13.812;2023-08-12T13:06:34;99530.34;;;32.72;36.50
39267;BME280;24967;51.154;13.812;2023-08-12T13:09:01;99514.81;;;32.81;36.46
39267;BME280;24967;51.154;13.812;2023-08-12T13:11:39;99508.31;;;32.91;36.45